CheckWX is a tool to help pilots better visualize weather data.  It is not intended as a substitute for an official pre-flight weather briefing.

21:30:40 UTC

4M9 METAR
Corning Municipal Airport
Corning, Arkansas, USA
Current

16 mins ago

K4M9 232115Z AUTO 20012KT CLR 31/25 A3009 RMK AO2 PWINO
Observed
May-23 @ 21:15 UTC
Wind
  • 200° at 12 KTS
Visibility
Cloud Levels
  • Clear skies
Temperature
31°C / 88°F
Dewpoint
25°C / 77°F
Heat Index
38°C / 100°F
Humidity
70%
Altimeter
30.09" Hg
Pressure
1018.92 hPa
Previous

36 mins ago

K4M9 232055Z AUTO 20014KT FEW037 31/25 A3009 RMK AO2 PWINO
Observed
May-23 @ 20:55 UTC
Wind
  • 200° at 14 KTS
Visibility
Cloud Levels
  • Few at 3,700' AGL
Temperature
31°C / 88°F
Dewpoint
25°C / 77°F
Heat Index
38°C / 100°F
Humidity
70%
Altimeter
30.09" Hg
Pressure
1018.92 hPa
Previous

56 mins ago

K4M9 232035Z AUTO 21013KT SCT035 31/25 A3010 RMK AO2 PWINO
Observed
May-23 @ 20:35 UTC
Wind
  • 210° at 13 KTS
Visibility
Cloud Levels
  • Scattered at 3,500' AGL
Temperature
31°C / 88°F
Dewpoint
25°C / 77°F
Heat Index
38°C / 100°F
Humidity
70%
Altimeter
30.1" Hg
Pressure
1019.32 hPa